createdAt,value
2017-12-09T00:01:59.939Z,14.40
2017-12-09T00:04:28.538Z,13.37
2017-12-09T00:06:58.737Z,12.80
2017-12-09T00:09:27.331Z,13.70
2017-12-09T00:11:55.927Z,12.00
2017-12-09T00:14:24.444Z,11.50
2017-12-09T00:16:54.463Z,11.80
2017-12-09T00:19:22.847Z,10.80
2017-12-09T00:21:51.251Z,10.30
2017-12-09T00:24:19.635Z,10.33
2017-12-09T00:26:47.745Z,9.30
2017-12-09T00:29:16.610Z,8.77
2017-12-09T00:31:47.133Z,8.93
2017-12-09T00:34:18.450Z,7.10
2017-12-09T00:36:47.149Z,7.57
2017-12-09T00:39:17.165Z,6.63
2017-12-09T00:41:46.968Z,8.37
2017-12-09T00:44:16.425Z,7.60
2017-12-09T00:46:44.810Z,8.40
2017-12-09T00:49:13.201Z,7.60
2017-12-09T00:51:41.547Z,7.43
2017-12-09T00:54:09.969Z,7.80
2017-12-09T00:56:39.107Z,6.90
2017-12-09T00:59:07.577Z,7.00
2017-12-09T01:01:35.985Z,7.30
2017-12-09T01:04:04.549Z,7.63
2017-12-09T01:06:32.931Z,7.57
2017-12-09T01:09:01.371Z,6.70
2017-12-09T01:11:30.000Z,7.40
2017-12-09T01:13:58.574Z,8.70
2017-12-09T01:16:38.175Z,7.43
2017-12-09T01:19:07.492Z,7.00
2017-12-09T01:21:35.851Z,7.53
2017-12-09T01:24:05.011Z,7.47
2017-12-09T01:26:33.570Z,7.27
2017-12-09T01:29:01.953Z,6.53
2017-12-09T01:31:29.669Z,7.10
2017-12-09T01:33:58.827Z,7.07
2017-12-09T01:36:27.209Z,7.57
2017-12-09T01:38:55.590Z,8.00
2017-12-09T01:41:25.109Z,7.10
2017-12-09T01:43:53.143Z,7.77
2017-12-09T01:46:21.182Z,8.10
2017-12-09T01:48:49.439Z,9.20
2017-12-09T01:51:17.922Z,7.80
2017-12-09T01:53:46.390Z,7.07
2017-12-09T01:56:14.106Z,7.70
2017-12-09T01:58:41.810Z,7.83
2017-12-09T02:01:10.266Z,8.00
2017-12-09T02:03:38.723Z,7.43
2017-12-09T02:06:06.767Z,8.07
2017-12-09T02:08:35.550Z,7.27
2017-12-09T02:11:03.270Z,7.23
2017-12-09T02:13:31.120Z,7.37
2017-12-09T02:15:59.788Z,8.50
2017-12-09T02:18:27.653Z,7.63
2017-12-09T02:20:55.345Z,8.13
2017-12-09T02:23:23.054Z,7.53
2017-12-09T02:25:51.538Z,7.97
2017-12-09T02:28:19.501Z,9.20
2017-12-09T02:30:47.222Z,7.40
2017-12-09T02:33:14.919Z,6.67
2017-12-09T02:35:43.393Z,7.07
2017-12-09T02:38:12.319Z,6.53
2017-12-09T02:40:40.082Z,7.00
2017-12-09T02:43:07.795Z,7.13
2017-12-09T02:45:37.044Z,7.80
2017-12-09T02:48:04.739Z,6.90
2017-12-09T02:50:32.466Z,7.50
2017-12-09T02:53:00.201Z,6.97
2017-12-09T02:55:28.706Z,5.77
2017-12-09T02:57:56.937Z,6.40
2017-12-09T03:00:25.641Z,6.40
2017-12-09T03:02:54.149Z,6.70
2017-12-09T03:05:22.121Z,6.37
2017-12-09T03:07:49.846Z,6.37
2017-12-09T03:10:18.522Z,6.57
2017-12-09T03:12:46.200Z,7.10
2017-12-09T03:15:15.013Z,6.50
2017-12-09T03:17:43.042Z,6.13
2017-12-09T03:20:11.645Z,6.97
2017-12-09T03:22:40.868Z,6.93
2017-12-09T03:25:08.937Z,6.90
2017-12-09T03:27:36.616Z,6.90
2017-12-09T03:30:04.660Z,7.27
2017-12-09T03:32:32.368Z,8.20
2017-12-09T03:35:00.409Z,7.40
2017-12-09T03:37:28.146Z,6.70
2017-12-09T03:39:55.867Z,7.00
2017-12-09T03:42:23.728Z,6.90
2017-12-09T03:44:52.075Z,6.70
2017-12-09T03:47:19.792Z,7.37
2017-12-09T03:49:48.277Z,7.00
2017-12-09T03:52:16.887Z,6.50
2017-12-09T03:54:44.593Z,7.37
2017-12-09T03:57:12.330Z,7.20
2017-12-09T03:59:40.009Z,6.83
2017-12-09T04:02:08.140Z,7.00
2017-12-09T04:04:36.039Z,7.53
2017-12-09T04:07:04.089Z,7.20
2017-12-09T04:09:32.119Z,7.73
2017-12-09T04:12:00.923Z,7.60
2017-12-09T04:14:28.653Z,8.57
2017-12-09T04:16:56.660Z,7.03
2017-12-09T04:19:24.761Z,7.50
2017-12-09T04:21:52.443Z,7.00
2017-12-09T04:24:20.494Z,7.70
2017-12-09T04:26:48.903Z,7.00
2017-12-09T04:29:16.732Z,6.73
2017-12-09T04:31:44.429Z,7.07
2017-12-09T04:34:13.291Z,7.60
2017-12-09T04:36:41.314Z,7.20
2017-12-09T04:39:09.784Z,7.67
2017-12-09T04:41:37.501Z,6.87
2017-12-09T04:44:05.210Z,7.10
2017-12-09T04:46:34.500Z,7.07
2017-12-09T04:49:02.538Z,7.00
2017-12-09T04:51:30.237Z,6.90
2017-12-09T04:53:57.995Z,7.10
2017-12-09T04:56:25.733Z,6.90
2017-12-09T04:58:53.770Z,7.93
2017-12-09T05:01:21.495Z,7.10
2017-12-09T05:03:50.085Z,7.10
2017-12-09T05:06:19.529Z,7.60
2017-12-09T05:08:47.256Z,6.30
2017-12-09T05:11:15.720Z,7.10
2017-12-09T05:13:43.761Z,6.60
2017-12-09T05:16:11.468Z,6.70
2017-12-09T05:18:39.973Z,6.80
2017-12-09T05:21:08.035Z,7.20
2017-12-09T05:23:36.100Z,7.67
2017-12-09T05:26:04.915Z,6.10
2017-12-09T05:28:32.950Z,7.40
2017-12-09T05:31:01.418Z,6.50
2017-12-09T05:33:29.960Z,7.00
2017-12-09T05:35:58.134Z,6.40
2017-12-09T05:38:25.826Z,6.93
2017-12-09T05:40:53.645Z,8.63
2017-12-09T05:43:22.431Z,6.90
2017-12-09T05:45:50.156Z,6.30
2017-12-09T05:48:18.775Z,6.67
2017-12-09T05:50:46.948Z,6.77
2017-12-09T05:53:14.658Z,5.80
2017-12-09T05:55:42.339Z,7.47
2017-12-09T05:58:10.859Z,6.00
2017-12-09T06:00:38.596Z,6.80
2017-12-09T06:03:06.631Z,6.30
2017-12-09T06:05:34.456Z,6.80
2017-12-09T06:08:02.264Z,6.50
2017-12-09T06:10:30.748Z,6.40
2017-12-09T06:12:59.231Z,6.70
2017-12-09T06:15:28.167Z,6.10
2017-12-09T06:17:55.857Z,7.10
2017-12-09T06:20:23.604Z,6.67
2017-12-09T06:22:51.355Z,6.20
2017-12-09T06:25:19.752Z,6.40
2017-12-09T06:27:47.447Z,6.50
2017-12-09T06:30:15.721Z,6.20
2017-12-09T06:32:44.199Z,6.90
2017-12-09T06:35:12.703Z,6.10
2017-12-09T06:37:40.750Z,6.20
2017-12-09T06:40:08.841Z,5.90
2017-12-09T06:42:37.515Z,6.73
2017-12-09T06:45:06.347Z,6.10
2017-12-09T06:47:34.079Z,6.80
2017-12-09T06:50:02.552Z,6.20
2017-12-09T06:52:31.029Z,7.10
2017-12-09T06:54:59.518Z,6.87
2017-12-09T06:57:27.600Z,5.80
2017-12-09T06:59:55.314Z,7.00
2017-12-09T07:02:23.084Z,6.87
2017-12-09T07:04:51.111Z,6.17
2017-12-09T07:07:18.822Z,6.13
2017-12-09T07:09:46.510Z,7.00
2017-12-09T07:12:14.546Z,6.63
2017-12-09T07:14:42.247Z,5.90
2017-12-09T07:17:10.621Z,6.37
2017-12-09T07:19:38.673Z,6.60
2017-12-09T07:22:07.892Z,7.37
2017-12-09T07:24:35.620Z,7.37
2017-12-09T07:27:03.746Z,7.30
2017-12-09T07:29:31.441Z,7.33
2017-12-09T07:31:59.288Z,7.03
2017-12-09T07:34:26.990Z,7.90
2017-12-09T07:36:55.821Z,7.60
2017-12-09T07:39:24.047Z,7.83
2017-12-09T07:41:52.163Z,8.43
2017-12-09T07:44:20.215Z,9.20
2017-12-09T07:46:48.722Z,8.37
2017-12-09T07:49:16.869Z,7.50
2017-12-09T07:51:45.680Z,8.40
2017-12-09T07:54:13.368Z,8.60
2017-12-09T07:56:41.435Z,8.23
2017-12-09T07:59:09.178Z,9.20
2017-12-09T08:01:37.235Z,8.43
2017-12-09T08:04:05.589Z,8.90
2017-12-09T08:06:34.478Z,9.00
2017-12-09T08:09:03.098Z,8.57
2017-12-09T08:11:31.544Z,9.57
2017-12-09T08:14:00.084Z,8.50
2017-12-09T08:16:27.921Z,8.80
2017-12-09T08:18:55.650Z,9.70
2017-12-09T08:21:24.111Z,8.50
2017-12-09T08:23:52.959Z,8.73
2017-12-09T08:26:21.311Z,9.10
2017-12-09T08:28:50.132Z,9.40
2017-12-09T08:31:18.203Z,9.40
2017-12-09T08:33:45.952Z,9.20
2017-12-09T08:36:13.697Z,9.23
2017-12-09T08:38:41.750Z,8.90
2017-12-09T08:41:10.034Z,9.17
2017-12-09T08:43:38.549Z,8.80
2017-12-09T08:46:06.267Z,9.90
2017-12-09T08:48:36.992Z,9.53
2017-12-09T08:51:05.060Z,9.80
2017-12-09T08:53:34.048Z,10.27
2017-12-09T08:56:01.788Z,10.50
2017-12-09T08:58:29.843Z,10.57
2017-12-09T09:00:57.581Z,11.07
2017-12-09T09:03:25.621Z,10.43
2017-12-09T09:05:54.429Z,9.40
2017-12-09T09:08:23.222Z,10.50
2017-12-09T09:10:51.273Z,10.73
2017-12-09T09:13:20.261Z,10.57
2017-12-09T09:15:47.992Z,10.30
2017-12-09T09:18:16.203Z,11.10
2017-12-09T09:20:45.095Z,11.57
2017-12-09T09:23:13.583Z,11.27
2017-12-09T09:25:42.153Z,11.30
2017-12-09T09:28:11.499Z,10.57
2017-12-09T09:30:39.955Z,10.50
2017-12-09T09:33:07.665Z,11.20
2017-12-09T09:35:35.376Z,10.33
2017-12-09T09:38:03.158Z,10.67
2017-12-09T09:40:30.941Z,10.10
2017-12-09T09:42:58.690Z,10.90
2017-12-09T09:45:26.443Z,10.17
2017-12-09T09:47:54.604Z,11.10
2017-12-09T09:50:22.315Z,10.50
2017-12-09T09:52:50.025Z,9.67
2017-12-09T09:55:18.369Z,10.03
2017-12-09T09:57:46.190Z,10.13
2017-12-09T10:00:14.640Z,8.80
2017-12-09T10:02:42.740Z,8.90
2017-12-09T10:05:11.134Z,8.97
2017-12-09T10:07:39.878Z,9.27
2017-12-09T10:10:08.390Z,9.30
2017-12-09T10:12:36.322Z,8.30
2017-12-09T10:15:04.945Z,8.50
2017-12-09T10:17:33.795Z,8.80
2017-12-09T10:20:02.841Z,8.47
2017-12-09T10:22:30.988Z,8.40
2017-12-09T10:24:59.017Z,8.17
2017-12-09T10:27:27.537Z,7.47
2017-12-09T10:29:55.685Z,7.80
2017-12-09T10:32:24.733Z,8.40
2017-12-09T10:34:52.455Z,7.93
2017-12-09T10:37:20.206Z,7.80
2017-12-09T10:39:49.012Z,8.40
2017-12-09T10:42:16.924Z,7.70
2017-12-09T10:44:44.686Z,8.10
2017-12-09T10:47:12.751Z,7.97
2017-12-09T10:49:41.098Z,7.90
2017-12-09T10:52:08.828Z,8.00
2017-12-09T10:54:38.164Z,7.90
2017-12-09T10:57:05.878Z,7.97
2017-12-09T10:59:34.517Z,7.13
2017-12-09T11:02:02.794Z,6.97
2017-12-09T11:04:30.494Z,7.33
2017-12-09T11:06:58.993Z,7.93
2017-12-09T11:09:28.031Z,7.67
2017-12-09T11:11:56.566Z,7.80
2017-12-09T11:14:24.418Z,7.47
2017-12-09T11:16:52.628Z,7.23
2017-12-09T11:19:21.566Z,6.97
2017-12-09T11:21:49.303Z,6.60
2017-12-09T11:24:17.007Z,7.13
2017-12-09T11:26:45.027Z,6.93
2017-12-09T11:29:12.750Z,7.80
2017-12-09T11:31:41.548Z,7.07
2017-12-09T11:34:09.259Z,6.97
2017-12-09T11:36:36.960Z,6.30
2017-12-09T11:39:05.457Z,7.03
2017-12-09T11:41:33.766Z,6.90
2017-12-09T11:44:02.128Z,7.30
2017-12-09T11:46:30.379Z,6.50
2017-12-09T11:48:58.835Z,7.70
2017-12-09T11:51:27.312Z,7.07
2017-12-09T11:53:56.627Z,8.20
2017-12-09T11:56:24.398Z,6.70
2017-12-09T11:58:53.213Z,7.20
2017-12-09T12:01:21.704Z,7.03
2017-12-09T12:03:49.740Z,7.20
2017-12-09T12:06:17.452Z,6.93
2017-12-09T12:08:45.547Z,6.77
2017-12-09T12:11:13.904Z,7.80
2017-12-09T12:13:41.594Z,7.60
2017-12-09T12:16:10.073Z,7.67
2017-12-09T12:18:37.779Z,7.70
2017-12-09T12:21:05.454Z,8.00
2017-12-09T12:23:33.518Z,7.70
2017-12-09T12:26:01.230Z,7.50
2017-12-09T12:28:28.920Z,7.90
2017-12-09T12:30:56.940Z,8.07
2017-12-09T12:33:25.057Z,9.03
2017-12-09T12:35:53.648Z,8.43
2017-12-09T12:38:22.057Z,8.50
2017-12-09T12:40:50.236Z,8.20
2017-12-09T12:43:18.076Z,8.23
2017-12-09T12:45:46.257Z,7.90
2017-12-09T12:48:14.297Z,7.63
2017-12-09T12:50:43.445Z,9.30
2017-12-09T12:53:12.027Z,9.07
2017-12-09T12:55:40.174Z,8.30
2017-12-09T12:58:08.205Z,8.60
2017-12-09T13:00:36.671Z,9.13
2017-12-09T13:03:04.368Z,9.03
2017-12-09T13:05:32.085Z,9.00
2017-12-09T13:08:00.118Z,8.60
2017-12-09T13:10:27.832Z,8.53
2017-12-09T13:12:56.413Z,9.20
2017-12-09T13:15:25.088Z,8.57
2017-12-09T13:17:52.826Z,7.40
2017-12-09T13:20:20.738Z,8.87
2017-12-09T13:22:49.227Z,7.90
2017-12-09T13:25:17.015Z,8.00
2017-12-09T13:27:45.062Z,8.27
2017-12-09T13:30:14.332Z,8.70
2017-12-09T13:32:42.150Z,8.37
2017-12-09T13:35:09.888Z,7.40
2017-12-09T13:37:37.984Z,7.60
2017-12-09T13:40:06.116Z,7.70
2017-12-09T13:42:34.924Z,7.87
2017-12-09T13:45:03.542Z,7.90
2017-12-09T13:47:31.235Z,8.07
2017-12-09T13:49:59.359Z,9.00
2017-12-09T13:52:27.500Z,8.13
2017-12-09T13:54:56.143Z,7.43
2017-12-09T13:57:24.497Z,7.93
2017-12-09T13:59:52.891Z,7.60
2017-12-09T14:02:20.673Z,8.07
2017-12-09T14:04:48.364Z,7.50
2017-12-09T14:07:17.222Z,8.03
2017-12-09T14:09:45.606Z,7.43
2017-12-09T14:12:13.993Z,6.80
2017-12-09T14:14:42.936Z,6.87
2017-12-09T14:17:10.966Z,8.17
2017-12-09T14:19:40.130Z,7.10
2017-12-09T14:22:08.563Z,7.07
2017-12-09T14:24:36.930Z,7.17
2017-12-09T14:27:06.067Z,6.90
2017-12-09T14:29:34.463Z,7.67
2017-12-09T14:32:02.853Z,7.40
2017-12-09T14:34:31.214Z,7.80
2017-12-09T14:36:59.736Z,7.33
2017-12-09T14:39:28.988Z,7.23
2017-12-09T14:41:57.105Z,7.37
2017-12-09T14:44:25.582Z,7.37
2017-12-09T14:46:54.719Z,7.37
2017-12-09T14:49:23.135Z,7.27
2017-12-09T14:51:51.657Z,6.53
2017-12-09T14:54:19.416Z,7.00
2017-12-09T14:56:47.606Z,7.50
2017-12-09T14:59:15.994Z,7.30
2017-12-09T15:01:44.059Z,7.13
2017-12-09T15:04:12.431Z,6.07
2017-12-09T15:06:40.837Z,6.30
2017-12-09T15:09:09.246Z,6.37
2017-12-09T15:11:37.678Z,6.27
2017-12-09T15:14:06.087Z,6.50
2017-12-09T15:16:34.448Z,6.37
2017-12-09T15:19:02.961Z,6.90
2017-12-09T15:21:31.351Z,6.50
2017-12-09T15:24:00.473Z,6.40
2017-12-09T15:26:28.832Z,5.43
2017-12-09T15:28:57.214Z,6.60
2017-12-09T15:31:26.359Z,6.57
2017-12-09T15:33:54.417Z,6.30
2017-12-09T15:36:22.119Z,6.93
2017-12-09T15:38:50.121Z,6.50
2017-12-09T15:41:18.436Z,7.07
2017-12-09T15:43:46.460Z,7.33
2017-12-09T15:46:15.253Z,6.57
2017-12-09T15:48:43.666Z,6.70
2017-12-09T15:51:11.544Z,7.20
2017-12-09T15:53:39.236Z,7.17
2017-12-09T15:56:07.746Z,6.57
2017-12-09T15:58:36.085Z,7.00
2017-12-09T16:01:04.569Z,6.90
2017-12-09T16:03:33.042Z,7.70
2017-12-09T16:06:01.102Z,7.13
2017-12-09T16:08:28.863Z,6.77
2017-12-09T16:10:56.572Z,7.13
2017-12-09T16:13:24.287Z,7.23
2017-12-09T16:15:52.184Z,7.40
2017-12-09T16:18:21.004Z,6.90
2017-12-09T16:20:49.112Z,8.00
2017-12-09T16:23:17.492Z,7.60
2017-12-09T16:25:45.524Z,7.53
2017-12-09T16:28:13.230Z,8.37
2017-12-09T16:30:41.440Z,7.43
2017-12-09T16:33:09.511Z,8.63
2017-12-09T16:35:38.163Z,7.83
2017-12-09T16:38:06.673Z,8.03
2017-12-09T16:40:34.399Z,8.53
2017-12-09T16:43:02.122Z,8.27
2017-12-09T16:45:29.815Z,8.63
2017-12-09T16:47:58.051Z,8.20
2017-12-09T16:50:26.088Z,7.77
2017-12-09T16:52:54.904Z,7.53
2017-12-09T16:55:22.380Z,7.77
2017-12-09T16:57:50.416Z,7.33
2017-12-09T17:00:18.125Z,7.87
2017-12-09T17:02:45.816Z,7.83
2017-12-09T17:05:14.369Z,7.27
2017-12-09T17:07:42.070Z,7.47
2017-12-09T17:10:10.532Z,7.20
2017-12-09T17:12:38.349Z,6.90
2017-12-09T17:15:06.061Z,6.80
2017-12-09T17:17:33.754Z,6.03
2017-12-09T17:20:01.763Z,7.97
2017-12-09T17:22:29.885Z,7.30
2017-12-09T17:24:58.339Z,5.93
2017-12-09T17:27:26.364Z,7.10
2017-12-09T17:29:54.038Z,7.03
2017-12-09T17:32:21.828Z,6.03
2017-12-09T17:34:49.522Z,6.10
2017-12-09T17:37:17.996Z,6.30
2017-12-09T17:39:46.452Z,7.00
2017-12-09T17:42:14.154Z,6.30
2017-12-09T17:44:41.855Z,5.90
2017-12-09T17:47:09.568Z,6.20
2017-12-09T17:49:38.056Z,6.37
2017-12-09T17:52:05.771Z,6.73
2017-12-09T17:54:33.580Z,6.50
2017-12-09T17:57:01.613Z,6.47
2017-12-09T17:59:29.318Z,6.50
2017-12-09T18:01:57.400Z,5.57
2017-12-09T18:04:25.092Z,6.10
2017-12-09T18:06:53.642Z,5.20
2017-12-09T18:09:21.349Z,6.10
2017-12-09T18:11:49.069Z,5.70
2017-12-09T18:14:17.109Z,5.80
2017-12-09T18:16:45.828Z,5.57
2017-12-09T18:19:13.763Z,4.90
2017-12-09T18:21:42.237Z,5.43
2017-12-09T18:24:11.080Z,5.90
2017-12-09T18:26:38.792Z,6.17
2017-12-09T18:29:07.304Z,5.40
2017-12-09T18:31:35.171Z,5.40
2017-12-09T18:34:02.900Z,5.90
2017-12-09T18:36:31.483Z,5.60
2017-12-09T18:39:00.276Z,5.10
2017-12-09T18:41:29.488Z,6.30
2017-12-09T18:43:57.212Z,5.80
2017-12-09T18:46:24.898Z,5.77
2017-12-09T18:48:53.377Z,5.40
2017-12-09T18:51:22.235Z,6.17
2017-12-09T18:53:50.447Z,5.77
2017-12-09T18:56:19.284Z,5.97
2017-12-09T18:58:47.446Z,6.00
2017-12-09T19:01:15.491Z,5.77
2017-12-09T19:03:44.294Z,6.33
2017-12-09T19:06:12.337Z,6.87
2017-12-09T19:08:40.843Z,6.00
2017-12-09T19:11:08.570Z,5.80
2017-12-09T19:13:37.754Z,6.27
2017-12-09T19:16:06.280Z,5.70
2017-12-09T19:18:34.009Z,6.10
2017-12-09T19:21:02.807Z,5.60
2017-12-09T19:23:30.536Z,5.97
2017-12-09T19:25:58.244Z,6.30
2017-12-09T19:28:25.977Z,6.10
2017-12-09T19:30:54.450Z,5.10
2017-12-09T19:33:22.136Z,5.50
2017-12-09T19:35:50.240Z,5.67
2017-12-09T19:38:18.665Z,6.10
2017-12-09T19:40:46.474Z,5.67
2017-12-09T19:43:14.277Z,5.83
2017-12-09T19:45:42.009Z,5.60
2017-12-09T19:48:09.692Z,5.97
2017-12-09T19:50:37.528Z,5.63
2017-12-09T19:53:05.743Z,6.03
2017-12-09T19:55:33.577Z,6.20
2017-12-09T19:58:01.333Z,5.40
2017-12-09T20:00:29.773Z,5.50
2017-12-09T20:02:58.932Z,6.00
2017-12-09T20:05:27.363Z,5.87
2017-12-09T20:07:55.436Z,5.77
2017-12-09T20:10:23.488Z,5.90
2017-12-09T20:12:51.974Z,5.97
2017-12-09T20:15:20.443Z,5.53
2017-12-09T20:17:48.556Z,5.67
2017-12-09T20:20:17.442Z,5.47
2017-12-09T20:22:45.202Z,6.57
2017-12-09T20:25:12.935Z,5.40
2017-12-09T20:27:41.778Z,6.60
2017-12-09T20:30:09.859Z,5.13
2017-12-09T20:32:37.665Z,5.90
2017-12-09T20:35:06.388Z,5.70
2017-12-09T20:37:34.108Z,5.93
2017-12-09T20:40:02.962Z,5.33
2017-12-09T20:42:30.698Z,5.93
2017-12-09T20:44:58.441Z,5.70
2017-12-09T20:47:26.539Z,5.40
2017-12-09T20:49:55.934Z,5.90
2017-12-09T20:52:24.515Z,5.63
2017-12-09T20:54:52.260Z,5.50
2017-12-09T20:57:20.089Z,5.40
2017-12-09T20:59:47.872Z,5.37
2017-12-09T21:02:15.745Z,6.17
2017-12-09T21:04:44.570Z,5.27
2017-12-09T21:07:13.627Z,5.83
2017-12-09T21:09:42.139Z,5.97
2017-12-09T21:12:10.060Z,6.97
2017-12-09T21:14:38.869Z,5.90
2017-12-09T21:17:07.241Z,5.30
2017-12-09T21:19:36.432Z,5.77
2017-12-09T21:22:05.971Z,6.03
2017-12-09T21:24:33.651Z,5.80
2017-12-09T21:27:01.710Z,4.70
2017-12-09T21:29:29.787Z,5.67
2017-12-09T21:31:57.828Z,5.60
2017-12-09T21:34:25.568Z,6.00
2017-12-09T21:36:54.367Z,5.80
2017-12-09T21:39:23.296Z,5.60
2017-12-09T21:41:51.553Z,5.93
2017-12-09T21:44:20.390Z,6.20
2017-12-09T21:46:48.224Z,5.17
2017-12-09T21:49:16.295Z,6.27
2017-12-09T21:51:43.994Z,6.70
2017-12-09T21:54:12.350Z,6.30
2017-12-09T21:56:40.076Z,6.50
2017-12-09T21:59:07.799Z,6.30
2017-12-09T22:01:36.236Z,6.63
2017-12-09T22:04:04.608Z,6.30
2017-12-09T22:06:32.694Z,6.30
2017-12-09T22:09:00.736Z,6.60
2017-12-09T22:11:28.540Z,6.80
2017-12-09T22:13:56.579Z,6.30
2017-12-09T22:16:24.463Z,6.63
2017-12-09T22:18:52.839Z,7.03
2017-12-09T22:21:20.892Z,6.10
2017-12-09T22:23:48.595Z,6.83
2017-12-09T22:26:16.723Z,6.30
2017-12-09T22:28:44.804Z,6.47
2017-12-09T22:31:13.341Z,7.10
2017-12-09T22:33:41.960Z,6.20
2017-12-09T22:36:10.003Z,6.53
2017-12-09T22:38:38.487Z,6.90
2017-12-09T22:41:06.525Z,6.70
2017-12-09T22:43:34.561Z,6.03
2017-12-09T22:46:02.954Z,7.00
2017-12-09T22:48:31.047Z,6.53
2017-12-09T22:50:58.937Z,6.20
2017-12-09T22:53:27.658Z,6.40
2017-12-09T22:55:55.499Z,6.17
2017-12-09T22:58:23.295Z,6.40
2017-12-09T23:00:51.454Z,6.30
2017-12-09T23:03:19.677Z,7.33
2017-12-09T23:05:47.716Z,6.60
2017-12-09T23:08:15.667Z,6.13
2017-12-09T23:10:43.835Z,7.03
2017-12-09T23:13:11.553Z,6.80
2017-12-09T23:15:40.194Z,6.90
2017-12-09T23:18:07.942Z,6.70
2017-12-09T23:20:35.708Z,7.00
2017-12-09T23:23:03.416Z,6.87
2017-12-09T23:25:31.454Z,7.83
2017-12-09T23:27:59.305Z,6.80
2017-12-09T23:30:27.276Z,7.00
2017-12-09T23:32:55.314Z,7.70
2017-12-09T23:35:24.141Z,7.70
2017-12-09T23:37:51.984Z,8.00
2017-12-09T23:40:19.863Z,8.37
2017-12-09T23:42:48.068Z,8.53
2017-12-09T23:45:16.447Z,9.03
2017-12-09T23:47:44.823Z,8.43
2017-12-09T23:50:12.864Z,8.50
2017-12-09T23:52:40.577Z,8.87
2017-12-09T23:55:08.623Z,7.90
2017-12-09T23:57:36.978Z,7.50
